Main page
METAR-TAF:

METAR-TAF

Airports :

Dubai, United Arab Emirates

Dubai International Airport

latitude: 25-15-10N, longitude: 055-21-52E, elevation: 8 m

Current weather observation

The report was made 1 hour and 3 minutes ago, at 14:00 UTC
Wind 11 kt from the Northwest
Temperature 27°C
Humidity 54%
Pressure 1014 hPa
Visibility 10 km or more
no clouds below 1500 m and no cumulonimbus

METAR: OMDB 291400Z 31011KT CAVOK 27/17 Q1014 NOSIG

Time: 19:03 (15:03 UTC)

Forecast

The report was made 4 hours and 0 minutes ago, at 11:03 UTC
Forecast valid from 29 at 12 UTC to 30 at 18 UTC
Wind 10 kt from the North/Northwest
Visibility: 8000 m
Becoming
from 29 at 16 UTC to 29 at 18 UTC
Wind 5 kt from the Northeast
Probability 30%
from 30 at 01 UTC to 30 at 04 UTC
Visibility: 4000 m
haze
Becoming
from 30 at 07 UTC to 30 at 09 UTC
Wind 10 kt from the North/Northwest

TAF: OMDB 291103Z 2912/3018 33010KT 8000 NSC BECMG 2916/2918 05005KT PROB30 3001/3004 4000 HZ BECMG 3007/3009 34010KT

Weather observations and forecasts of more than 4000 airports (METAR and TAF reports).

The available stations are represented by yellow and red dots on the map.

Hover mouse over dot to see the name of the station.

Then click to see weather observations and forecasts.

To change the map : click on the green buttons with a black cross to zoom in, on the green button with a dash to zoom out, or on the green arrows for adjacent maps.


METAR-TAF: